Time;durP1;ratioP1;P1;durP2;ratioP2;P2;SDS_P1;SDS_P2;PMS_P1;PMS_P2;Temp;Humidity;BMP_temperature;BMP_pressure;BME280_temperature;BME280_humidity;BME280_pressure;Samples;Min_cycle;Max_cycle;Signal;HPM_P1;HPM_P2
2022/06/15 00:01:22;;;;;;;;;;;27.40;38.00;;;;;;4107790;28;19935;-42
2022/06/15 00:03:25;;;;;;;;;;;27.50;37.80;;;;;;4106413;28;19937;-44
2022/06/15 00:05:27;;;;;;;;;;;27.50;37.70;;;;;;4118910;28;20333;-40
2022/06/15 00:07:29;;;;;;;;;;;27.60;37.70;;;;;;4113061;28;21447;-41
2022/06/15 00:09:30;;;;;;;;;;;27.70;37.60;;;;;;4109647;28;20419;-44
2022/06/15 00:11:34;;;;;;;;;;;27.70;38.20;;;;;;4114618;28;19929;-41
2022/06/15 00:13:36;;;;;;;;;;;27.80;37.40;;;;;;4117320;28;20502;-44
2022/06/15 00:15:38;;;;;;;;;;;27.90;37.40;;;;;;4108578;28;19925;-42
2022/06/15 00:17:39;;;;;;;;;;;27.90;37.10;;;;;;4108632;28;20335;-43
2022/06/15 00:19:41;;;;;;;;;;;28.00;37.20;;;;;;4117740;28;19931;-47
2022/06/15 00:21:43;;;;;;;;;;;28.00;37.00;;;;;;4109721;28;19928;-45
2022/06/15 00:23:44;;;;;;;;;;;28.10;37.00;;;;;;4108622;28;19931;-41
2022/06/15 00:25:52;;;;;;;;;;;28.20;36.90;;;;;;4115172;28;20016;-42
2022/06/15 00:27:53;;;;;;;;;;;28.20;36.80;;;;;;4113977;28;19966;-44
2022/06/15 00:29:55;;;;;;;;;;;28.30;36.80;;;;;;4107816;28;19925;-44
2022/06/15 00:31:57;;;;;;;;;;;28.30;36.60;;;;;;4110762;28;20416;-42
2022/06/15 00:33:58;;;;;;;;;;;28.40;36.70;;;;;;4116000;28;19948;-42
2022/06/15 00:36:01;;;;;;;;;;;28.40;36.50;;;;;;4109328;28;19959;-44
2022/06/15 00:38:03;;;;;;;;;;;28.50;36.60;;;;;;4109755;28;19932;-42
2022/06/15 00:40:07;;;;;;;;;;;28.50;36.50;;;;;;4118154;28;19929;-44
2022/06/15 00:42:11;;;;;;;;;;;28.60;36.50;;;;;;4109824;28;20468;-43
2022/06/15 00:44:22;;;;;;;;;;;28.60;36.50;;;;;;4110049;28;20020;-43
2022/06/15 00:46:40;;;;;;;;;;;28.60;36.30;;;;;;4107494;28;20027;-47
2022/06/15 00:48:42;;;;;;;;;;;28.70;36.30;;;;;;4106318;28;19991;-43
2022/06/15 00:50:44;;;;;;;;;;;28.70;36.20;;;;;;4109858;28;19965;-41
2022/06/15 00:52:54;;;;;;;;;;;28.80;36.20;;;;;;4116306;28;19995;-44
2022/06/15 00:54:55;;;;;;;;;;;28.80;36.00;;;;;;4115517;28;19940;-41
2022/06/15 00:56:57;;;;;;;;;;;28.90;36.10;;;;;;4108889;28;19925;-43
2022/06/15 00:59:00;;;;;;;;;;;28.90;36.00;;;;;;4108839;28;19972;-44
2022/06/15 01:01:02;;;;;;;;;;;28.90;36.00;;;;;;4117742;28;19925;-42
2022/06/15 01:03:03;;;;;;;;;;;28.50;35.80;;;;;;4107187;28;20055;-44
2022/06/15 01:05:07;;;;;;;;;;;28.20;36.00;;;;;;4108448;28;19929;-43
2022/06/15 01:07:15;;;;;;;;;;;27.80;36.30;;;;;;4113787;28;19939;-40
2022/06/15 01:09:24;;;;;;;;;;;27.50;36.80;;;;;;4113663;28;19978;-45
2022/06/15 01:11:25;;;;;;;;;;;27.10;37.70;;;;;;4115962;28;19975;-42
2022/06/15 01:13:40;;;;;;;;;;;26.90;37.50;;;;;;4108927;28;20070;-44
2022/06/15 01:15:42;;;;;;;;;;;26.60;37.90;;;;;;4106351;28;19929;-42
2022/06/15 01:18:15;;;;;;;;;;;26.40;38.20;;;;;;4105201;28;19921;-46
2022/06/15 01:20:26;;;;;;;;;;;26.20;38.10;;;;;;4091475;28;19944;-44
2022/06/15 01:22:30;;;;;;;;;;;26.00;38.20;;;;;;4112403;28;20299;-42
2022/06/15 01:24:32;;;;;;;;;;;25.80;38.10;;;;;;4109836;28;20502;-44
2022/06/15 01:26:49;;;;;;;;;;;25.60;38.40;;;;;;4108278;28;20153;-44
2022/06/15 01:29:04;;;;;;;;;;;25.40;38.70;;;;;;4108094;28;20055;-45
2022/06/15 01:31:06;;;;;;;;;;;25.30;38.90;;;;;;4107906;28;19936;-41
2022/06/15 01:33:12;;;;;;;;;;;25.10;39.00;;;;;;4107947;28;19921;-42
2022/06/15 01:35:17;;;;;;;;;;;24.90;39.30;;;;;;4115375;28;20060;-44
2022/06/15 01:37:33;;;;;;;;;;;24.80;39.30;;;;;;4115658;28;19928;-44
2022/06/15 01:39:42;;;;;;;;;;;24.70;39.80;;;;;;4115522;28;20030;-45
2022/06/15 01:41:52;;;;;;;;;;;24.50;39.40;;;;;;4115390;28;20412;-41
2022/06/15 01:44:08;;;;;;;;;;;24.40;39.90;;;;;;4114770;28;19932;-42
2022/06/15 01:46:10;;;;;;;;;;;24.20;39.90;;;;;;4116896;28;19964;-45
2022/06/15 01:48:12;;;;;;;;;;;24.10;40.10;;;;;;4106949;28;19925;-44
2022/06/15 01:50:17;;;;;;;;;;;24.00;40.40;;;;;;4106728;28;19929;-42
2022/06/15 01:52:21;;;;;;;;;;;23.90;40.70;;;;;;4111091;28;19957;-41
2022/06/15 01:54:29;;;;;;;;;;;23.80;40.80;;;;;;4114965;28;19983;-40
2022/06/15 01:56:34;;;;;;;;;;;23.60;40.70;;;;;;4110459;28;20015;-45
2022/06/15 01:58:37;;;;;;;;;;;23.50;40.90;;;;;;4105519;28;20343;-45
2022/06/15 02:00:40;;;;;;;;;;;23.40;41.00;;;;;;4106163;28;20750;-42
2022/06/15 02:02:59;;;;;;;;;;;23.30;41.10;;;;;;4113417;28;19955;-43
2022/06/15 02:05:09;;;;;;;;;;;23.20;41.30;;;;;;4108450;28;19925;-41
2022/06/15 02:07:22;;;;;;;;;;;23.20;41.40;;;;;;4110338;28;19936;-42
2022/06/15 02:09:36;;;;;;;;;;;23.10;41.50;;;;;;4111268;28;19990;-46
2022/06/15 02:11:39;;;;;;;;;;;22.90;41.80;;;;;;4110764;28;20040;-40
2022/06/15 02:13:51;;;;;;;;;;;22.80;41.90;;;;;;4115481;28;19929;-43
2022/06/15 02:15:55;;;;;;;;;;;22.60;42.20;;;;;;4114782;28;19925;-43
2022/06/15 02:17:59;;;;;;;;;;;22.40;42.30;;;;;;4106708;28;21242;-44
2022/06/15 02:20:03;;;;;;;;;;;22.20;42.50;;;;;;4108126;28;20222;-43
2022/06/15 02:22:08;;;;;;;;;;;22.10;42.90;;;;;;4111785;28;20593;-40
2022/06/15 02:24:12;;;;;;;;;;;21.90;43.10;;;;;;4115612;28;20331;-43
2022/06/15 02:26:15;;;;;;;;;;;21.80;43.20;;;;;;4107100;28;20063;-40
2022/06/15 02:28:19;;;;;;;;;;;21.60;43.30;;;;;;4107187;28;19925;-46
2022/06/15 02:30:23;;;;;;;;;;;21.50;43.60;;;;;;4111918;28;19925;-42
2022/06/15 02:32:24;;;;;;;;;;;21.40;43.50;;;;;;4114640;28;20767;-45
2022/06/15 02:34:27;;;;;;;;;;;21.30;43.70;;;;;;4123400;28;20014;-47
2022/06/15 02:36:31;;;;;;;;;;;21.20;43.90;;;;;;4106190;28;19964;-49
2022/06/15 02:38:33;;;;;;;;;;;21.10;43.90;;;;;;4115339;28;19960;-44
2022/06/15 02:40:35;;;;;;;;;;;21.00;44.00;;;;;;4110612;28;20864;-44
2022/06/15 02:42:37;;;;;;;;;;;20.80;44.20;;;;;;4107637;28;19972;-45
2022/06/15 02:44:40;;;;;;;;;;;20.80;44.10;;;;;;4107834;28;20005;-47
2022/06/15 02:46:44;;;;;;;;;;;20.70;44.80;;;;;;4112587;28;19944;-43
2022/06/15 02:48:46;;;;;;;;;;;20.60;44.50;;;;;;4108156;28;20397;-50
2022/06/15 02:50:51;;;;;;;;;;;20.50;44.80;;;;;;4107703;28;19996;-56
2022/06/15 02:53:10;;;;;;;;;;;20.40;45.00;;;;;;4113465;28;19940;-58
2022/06/15 02:55:12;;;;;;;;;;;20.30;45.10;;;;;;4111027;28;20257;-47
2022/06/15 02:57:14;;;;;;;;;;;20.20;45.20;;;;;;4118892;28;20005;-46
2022/06/15 02:59:17;;;;;;;;;;;20.10;45.40;;;;;;4112731;28;20819;-48
2022/06/15 03:01:19;;;;;;;;;;;20.00;45.50;;;;;;4111410;28;19932;-49
2022/06/15 03:03:22;;;;;;;;;;;20.00;45.50;;;;;;4116813;28;19971;-45
2022/06/15 03:05:24;;;;;;;;;;;19.90;46.10;;;;;;4117413;28;21119;-48
2022/06/15 03:07:26;;;;;;;;;;;19.90;46.00;;;;;;4110348;28;19924;-41
2022/06/15 03:09:28;;;;;;;;;;;19.80;46.20;;;;;;4111106;28;20011;-43
2022/06/15 03:11:30;;;;;;;;;;;19.80;46.60;;;;;;4117602;28;19936;-42
2022/06/15 03:13:31;;;;;;;;;;;19.70;46.40;;;;;;4107762;28;19925;-42
2022/06/15 03:15:33;;;;;;;;;;;19.70;46.60;;;;;;4108635;28;20354;-45
2022/06/15 03:17:34;;;;;;;;;;;19.60;46.60;;;;;;4116678;28;19936;-42
2022/06/15 03:19:36;;;;;;;;;;;19.60;46.60;;;;;;4105464;28;19933;-42
2022/06/15 03:21:37;;;;;;;;;;;19.50;46.60;;;;;;4123370;28;19986;-42
2022/06/15 03:23:39;;;;;;;;;;;19.50;46.70;;;;;;4117468;28;19936;-43
2022/06/15 03:25:41;;;;;;;;;;;19.50;46.80;;;;;;4108321;28;21073;-43
2022/06/15 03:27:43;;;;;;;;;;;19.50;46.90;;;;;;4108653;28;19929;-40
2022/06/15 03:29:45;;;;;;;;;;;19.40;46.90;;;;;;4117763;28;19994;-45
2022/06/15 03:31:46;;;;;;;;;;;19.40;46.90;;;;;;4107408;28;20040;-42
2022/06/15 03:33:48;;;;;;;;;;;19.40;47.10;;;;;;4109008;28;19937;-43
2022/06/15 03:35:49;;;;;;;;;;;19.30;47.10;;;;;;4113598;28;19929;-43
2022/06/15 03:37:51;;;;;;;;;;;19.30;47.20;;;;;;4112911;28;20268;-46
2022/06/15 03:39:54;;;;;;;;;;;19.30;47.40;;;;;;4107865;28;20032;-44
2022/06/15 03:42:06;;;;;;;;;;;19.30;47.50;;;;;;4112017;28;20031;-43
2022/06/15 03:44:07;;;;;;;;;;;19.20;47.50;;;;;;4109808;28;19944;-42
2022/06/15 03:46:09;;;;;;;;;;;19.20;47.70;;;;;;4114788;28;20948;-44
2022/06/15 03:48:11;;;;;;;;;;;19.20;47.80;;;;;;4106730;28;20395;-43
2022/06/15 03:50:12;;;;;;;;;;;19.20;47.80;;;;;;4109442;28;19925;-43
2022/06/15 03:52:15;;;;;;;;;;;19.20;47.90;;;;;;4116752;28;19939;-42
2022/06/15 03:54:16;;;;;;;;;;;19.20;47.90;;;;;;4108803;28;19929;-42
2022/06/15 03:56:18;;;;;;;;;;;19.20;48.10;;;;;;4109436;28;19948;-46
2022/06/15 03:58:20;;;;;;;;;;;19.10;48.00;;;;;;4115846;28;19929;-43
2022/06/15 04:00:23;;;;;;;;;;;19.20;48.10;;;;;;4109634;28;20058;-42
2022/06/15 04:02:24;;;;;;;;;;;19.10;48.10;;;;;;4110051;28;19925;-42
2022/06/15 04:04:26;;;;;;;;;;;19.20;48.20;;;;;;4114023;28;20296;-43
2022/06/15 04:06:28;;;;;;;;;;;19.20;48.20;;;;;;4110197;28;20054;-42
2022/06/15 04:08:38;;;;;;;;;;;19.20;48.10;;;;;;4115264;28;20196;-44
2022/06/15 04:10:39;;;;;;;;;;;19.20;48.20;;;;;;4114506;28;20358;-41
2022/06/15 04:12:52;;;;;;;;;;;19.30;48.30;;;;;;4132314;28;19935;-51
2022/06/15 04:14:54;;;;;;;;;;;19.30;48.50;;;;;;4138679;28;20384;-46
2022/06/15 04:16:56;;;;;;;;;;;19.50;48.40;;;;;;4129388;28;20292;-44
2022/06/15 04:19:02;;;;;;;;;;;19.50;48.20;;;;;;4109250;28;20389;-45
2022/06/15 04:21:03;;;;;;;;;;;19.70;48.20;;;;;;4111444;28;20355;-42
2022/06/15 04:23:07;;;;;;;;;;;19.80;48.20;;;;;;4116016;28;19987;-41
2022/06/15 04:25:08;;;;;;;;;;;19.80;48.10;;;;;;4107592;28;19928;-45
2022/06/15 04:27:14;;;;;;;;;;;19.90;48.10;;;;;;4106805;28;19951;-47
2022/06/15 04:29:16;;;;;;;;;;;20.00;48.20;;;;;;4111618;28;19929;-49
2022/06/15 04:31:18;;;;;;;;;;;20.10;48.30;;;;;;4116053;28;20325;-46
2022/06/15 04:33:20;;;;;;;;;;;20.20;48.20;;;;;;4107395;28;20028;-46
2022/06/15 04:35:21;;;;;;;;;;;20.20;48.20;;;;;;4113929;28;19929;-48
2022/06/15 04:37:23;;;;;;;;;;;20.30;48.20;;;;;;4119000;28;20557;-45
2022/06/15 04:39:25;;;;;;;;;;;20.40;48.20;;;;;;4108074;28;19932;-43
2022/06/15 04:41:26;;;;;;;;;;;20.50;48.10;;;;;;4111233;28;20513;-48
2022/06/15 04:43:28;;;;;;;;;;;20.50;48.20;;;;;;4118459;28;19990;-45
2022/06/15 04:45:29;;;;;;;;;;;20.60;48.20;;;;;;4109593;28;19944;-47
2022/06/15 04:47:31;;;;;;;;;;;20.60;48.10;;;;;;4104762;28;19937;-52
2022/06/15 04:49:33;;;;;;;;;;;20.70;48.10;;;;;;4109122;28;19971;-49
2022/06/15 04:51:38;;;;;;;;;;;20.70;48.00;;;;;;4105549;28;20060;-52
2022/06/15 04:53:40;;;;;;;;;;;20.80;48.10;;;;;;4106100;28;19947;-45
2022/06/15 04:55:42;;;;;;;;;;;20.90;48.10;;;;;;4112709;28;20139;-48
2022/06/15 04:57:44;;;;;;;;;;;20.90;48.10;;;;;;4108777;28;20390;-51
2022/06/15 04:59:45;;;;;;;;;;;21.00;48.00;;;;;;4104693;28;20314;-46
2022/06/15 05:01:47;;;;;;;;;;;21.00;47.90;;;;;;4107882;28;19936;-46
2022/06/15 05:03:49;;;;;;;;;;;21.10;47.90;;;;;;4111457;28;19959;-46
2022/06/15 05:05:54;;;;;;;;;;;21.10;47.80;;;;;;4104764;28;19936;-50
2022/06/15 05:07:55;;;;;;;;;;;21.20;47.70;;;;;;4103297;28;19937;-41
2022/06/15 05:09:57;;;;;;;;;;;21.20;47.60;;;;;;4109552;28;19936;-45
2022/06/15 05:11:59;;;;;;;;;;;21.40;47.60;;;;;;4103481;28;20816;-53
2022/06/15 05:14:00;;;;;;;;;;;21.90;46.90;;;;;;4104495;28;20736;-49
2022/06/15 05:16:02;;;;;;;;;;;22.70;46.00;;;;;;4111982;28;20389;-52
2022/06/15 05:18:05;;;;;;;;;;;23.30;44.90;;;;;;4107639;28;20438;-53
2022/06/15 05:20:08;;;;;;;;;;;23.90;44.00;;;;;;4100800;28;19952;-45
2022/06/15 05:22:09;;;;;;;;;;;24.40;43.20;;;;;;4108853;28;19928;-47
2022/06/15 05:24:11;;;;;;;;;;;24.90;42.60;;;;;;4110304;28;20026;-50
2022/06/15 05:26:13;;;;;;;;;;;25.30;42.00;;;;;;4105713;28;19929;-48
2022/06/15 05:28:15;;;;;;;;;;;25.60;41.70;;;;;;4106763;28;19983;-44
2022/06/15 05:30:17;;;;;;;;;;;25.90;41.30;;;;;;4114212;28;19956;-52
2022/06/15 05:32:18;;;;;;;;;;;26.20;41.20;;;;;;4105229;28;19977;-47
2022/06/15 05:34:20;;;;;;;;;;;26.40;41.10;;;;;;4094984;28;19925;-44
2022/06/15 05:36:24;;;;;;;;;;;26.30;41.10;;;;;;4106053;28;19936;-44
2022/06/15 05:38:25;;;;;;;;;;;25.90;41.50;;;;;;4097361;28;19979;-43
2022/06/15 05:40:27;;;;;;;;;;;25.50;41.80;;;;;;4098562;28;19929;-46
2022/06/15 05:42:29;;;;;;;;;;;25.20;42.50;;;;;;4107129;28;20322;-42
2022/06/15 05:46:42;;;;;;;;;;;24.70;43.50;;;;;;4097999;28;20290;-44
2022/06/15 05:48:44;;;;;;;;;;;24.40;43.80;;;;;;4100181;28;19956;-44
2022/06/15 05:50:46;;;;;;;;;;;24.20;44.30;;;;;;4104816;28;20233;-43
2022/06/15 05:52:47;;;;;;;;;;;24.10;44.60;;;;;;4101536;28;20576;-41
2022/06/15 05:54:49;;;;;;;;;;;23.90;44.80;;;;;;4099196;28;19969;-43
2022/06/15 05:56:50;;;;;;;;;;;23.80;45.00;;;;;;4104911;28;20523;-42
2022/06/15 05:58:52;;;;;;;;;;;23.60;45.20;;;;;;4102743;28;19934;-44
2022/06/15 06:00:53;;;;;;;;;;;23.60;45.60;;;;;;4098866;28;19936;-43
2022/06/15 06:02:55;;;;;;;;;;;23.50;45.60;;;;;;4118308;28;19933;-49
2022/06/15 06:04:57;;;;;;;;;;;23.40;45.60;;;;;;4106841;28;20427;-48
2022/06/15 06:06:58;;;;;;;;;;;23.30;45.70;;;;;;4104050;28;20412;-52
2022/06/15 06:09:00;;;;;;;;;;;23.20;45.60;;;;;;4102715;28;19929;-45
2022/06/15 06:11:02;;;;;;;;;;;23.10;45.50;;;;;;4105223;28;20255;-47
2022/06/15 06:13:04;;;;;;;;;;;23.10;45.60;;;;;;4097730;28;20405;-48
2022/06/15 06:15:05;;;;;;;;;;;23.00;46.00;;;;;;4097694;28;20008;-44
2022/06/15 06:17:08;;;;;;;;;;;22.90;46.00;;;;;;4107705;28;20353;-49
2022/06/15 06:19:09;;;;;;;;;;;22.90;46.20;;;;;;4100204;28;20732;-50
2022/06/15 06:21:11;;;;;;;;;;;22.80;46.20;;;;;;4099124;28;20418;-48
2022/06/15 06:23:14;;;;;;;;;;;22.70;46.60;;;;;;4109575;28;20511;-47
2022/06/15 06:25:16;;;;;;;;;;;22.70;46.40;;;;;;4103901;28;20617;-49
2022/06/15 06:27:17;;;;;;;;;;;22.70;46.70;;;;;;4099344;28;20551;-48
2022/06/15 06:29:19;;;;;;;;;;;22.60;46.90;;;;;;4105645;28;19932;-48
2022/06/15 06:31:21;;;;;;;;;;;22.70;47.70;;;;;;4103570;28;20978;-53
2022/06/15 06:33:22;;;;;;;;;;;22.90;46.60;;;;;;4095753;28;19925;-49
2022/06/15 06:35:24;;;;;;;;;;;23.00;46.20;;;;;;4104086;28;20261;-53
2022/06/15 06:37:34;;;;;;;;;;;23.00;46.60;;;;;;4104580;28;19975;-49
2022/06/15 06:39:36;;;;;;;;;;;22.90;46.80;;;;;;4100804;28;19936;-50
2022/06/15 06:41:37;;;;;;;;;;;22.70;47.10;;;;;;4097934;28;20268;-48
2022/06/15 06:43:39;;;;;;;;;;;22.60;47.30;;;;;;4106478;28;19929;-54
2022/06/15 06:45:41;;;;;;;;;;;22.50;47.30;;;;;;4105509;28;20519;-54
2022/06/15 06:47:44;;;;;;;;;;;22.40;47.50;;;;;;4098439;28;19929;-56
2022/06/15 06:49:45;;;;;;;;;;;22.30;47.20;;;;;;4100184;28;19939;-56
2022/06/15 06:51:47;;;;;;;;;;;22.20;47.50;;;;;;4108090;28;19929;-49
2022/06/15 06:53:49;;;;;;;;;;;22.20;47.40;;;;;;4098346;28;19933;-52
2022/06/15 06:55:51;;;;;;;;;;;22.10;47.60;;;;;;4101222;28;19929;-55
2022/06/15 06:57:56;;;;;;;;;;;22.00;47.40;;;;;;4108572;28;19991;-52
2022/06/15 06:59:57;;;;;;;;;;;22.00;47.40;;;;;;4100984;28;21916;-56
2022/06/15 07:01:59;;;;;;;;;;;21.90;47.40;;;;;;4099358;28;19925;-52
2022/06/15 07:04:01;;;;;;;;;;;21.90;47.20;;;;;;4105257;28;19987;-51
2022/06/15 07:06:07;;;;;;;;;;;21.80;47.20;;;;;;4105901;28;20022;-47
2022/06/15 07:08:12;;;;;;;;;;;21.80;47.40;;;;;;4098718;28;19928;-53
2022/06/15 07:10:14;;;;;;;;;;;21.80;47.70;;;;;;4095230;28;19925;-48
2022/06/15 07:12:16;;;;;;;;;;;21.70;47.90;;;;;;4106390;28;20346;-52
2022/06/15 07:14:18;;;;;;;;;;;21.70;48.10;;;;;;4113999;28;20173;-49
2022/06/15 07:16:20;;;;;;;;;;;21.60;48.40;;;;;;4096782;28;20260;-48
2022/06/15 07:18:22;;;;;;;;;;;21.60;48.60;;;;;;4099627;28;19925;-47
2022/06/15 07:20:23;;;;;;;;;;;21.60;48.70;;;;;;4103213;28;20181;-47
2022/06/15 07:22:25;;;;;;;;;;;21.50;48.60;;;;;;4096074;28;19936;-46
2022/06/15 07:24:26;;;;;;;;;;;21.50;48.90;;;;;;4098182;28;19933;-46
2022/06/15 07:26:33;;;;;;;;;;;21.40;48.90;;;;;;4102852;28;19984;-48
2022/06/15 07:28:34;;;;;;;;;;;21.40;49.00;;;;;;4096004;28;21410;-53
2022/06/15 07:30:36;;;;;;;;;;;21.40;49.10;;;;;;4095801;28;20339;-54
2022/06/15 07:32:39;;;;;;;;;;;21.40;49.20;;;;;;4107743;28;19977;-50
2022/06/15 07:34:41;;;;;;;;;;;21.40;49.50;;;;;;4103163;28;20191;-54
2022/06/15 07:36:46;;;;;;;;;;;21.30;49.40;;;;;;4099027;28;20054;-48
2022/06/15 07:38:48;;;;;;;;;;;21.30;49.40;;;;;;4094578;28;19921;-53
2022/06/15 07:40:50;;;;;;;;;;;21.20;49.40;;;;;;4101551;28;20426;-52
2022/06/15 07:42:52;;;;;;;;;;;21.20;49.60;;;;;;4099256;28;20021;-51
2022/06/15 07:44:54;;;;;;;;;;;21.20;49.70;;;;;;4095029;28;20799;-52
2022/06/15 07:51:38;;;;;;;;;;;21.10;50.00;;;;;;4100649;28;19929;-51
2022/06/15 07:53:39;;;;;;;;;;;21.10;50.20;;;;;;4100734;28;20433;-48
2022/06/15 07:55:43;;;;;;;;;;;21.00;50.10;;;;;;4108432;28;20840;-49
2022/06/15 07:57:45;;;;;;;;;;;21.00;50.10;;;;;;4101660;28;19933;-54
2022/06/15 07:59:47;;;;;;;;;;;21.00;50.20;;;;;;4100934;28;19929;-55
2022/06/15 08:01:48;;;;;;;;;;;21.00;50.20;;;;;;4109199;28;20035;-50
2022/06/15 08:03:50;;;;;;;;;;;20.90;50.30;;;;;;4100231;28;20244;-57
2022/06/15 08:05:53;;;;;;;;;;;20.90;50.30;;;;;;4100270;28;20464;-49
2022/06/15 08:07:54;;;;;;;;;;;20.90;50.50;;;;;;4107302;28;20085;-52
2022/06/15 08:09:56;;;;;;;;;;;20.80;50.60;;;;;;4099104;28;20903;-49
2022/06/15 08:12:16;;;;;;;;;;;20.80;50.60;;;;;;4099870;28;19966;-53
2022/06/15 08:14:17;;;;;;;;;;;20.80;50.70;;;;;;4100972;28;21985;-51
2022/06/15 08:16:20;;;;;;;;;;;20.80;50.90;;;;;;4103155;28;20289;-48
2022/06/15 08:18:23;;;;;;;;;;;20.70;50.90;;;;;;4106319;28;20484;-54
2022/06/15 08:20:27;;;;;;;;;;;20.70;51.20;;;;;;4103210;28;20989;-51
2022/06/15 08:22:29;;;;;;;;;;;20.60;51.10;;;;;;4098648;28;20905;-50
2022/06/15 08:24:31;;;;;;;;;;;20.60;51.30;;;;;;4099014;28;19971;-51
2022/06/15 08:26:35;;;;;;;;;;;20.60;51.40;;;;;;4107459;28;19937;-54
2022/06/15 08:28:38;;;;;;;;;;;20.60;51.50;;;;;;4102462;28;20022;-55
2022/06/15 08:30:39;;;;;;;;;;;20.50;51.40;;;;;;4101080;28;20010;-47
2022/06/15 08:32:41;;;;;;;;;;;20.50;51.50;;;;;;4111508;28;19960;-53
2022/06/15 08:34:43;;;;;;;;;;;20.50;51.70;;;;;;4106389;28;20411;-49
2022/06/15 08:36:45;;;;;;;;;;;20.50;51.70;;;;;;4102000;28;19929;-49
2022/06/15 08:38:47;;;;;;;;;;;20.40;51.80;;;;;;4108553;28;20536;-50
2022/06/15 08:40:51;;;;;;;;;;;20.40;51.70;;;;;;4110975;28;20969;-49
2022/06/15 08:43:08;;;;;;;;;;;20.40;51.80;;;;;;4105401;28;20505;-51
2022/06/15 08:45:30;;;;;;;;;;;20.30;51.90;;;;;;4107032;28;20726;-48
2022/06/15 08:47:38;;;;;;;;;;;20.30;51.80;;;;;;4104822;28;19983;-53
2022/06/15 08:49:53;;;;;;;;;;;20.30;51.90;;;;;;4109556;28;19925;-55
2022/06/15 08:51:58;;;;;;;;;;;20.30;52.00;;;;;;4109444;28;20718;-50
2022/06/15 08:53:59;;;;;;;;;;;20.30;52.10;;;;;;4107878;28;21425;-53
2022/06/15 08:56:07;;;;;;;;;;;20.20;52.30;;;;;;4104207;28;20396;-55
2022/06/15 08:58:27;;;;;;;;;;;20.20;52.20;;;;;;4101654;28;19943;-55
2022/06/15 09:00:33;;;;;;;;;;;20.20;52.70;;;;;;4103028;28;19932;-48
2022/06/15 09:02:47;;;;;;;;;;;20.20;52.70;;;;;;4102545;28;19984;-53
2022/06/15 09:04:55;;;;;;;;;;;20.20;52.70;;;;;;4102988;28;20410;-53
2022/06/15 09:06:56;;;;;;;;;;;20.10;52.70;;;;;;4104334;28;20343;-57
2022/06/15 09:09:09;;;;;;;;;;;20.10;52.80;;;;;;4111424;28;20657;-53
2022/06/15 09:11:28;;;;;;;;;;;20.10;52.80;;;;;;4110918;28;19929;-54
2022/06/15 09:13:36;;;;;;;;;;;20.10;53.00;;;;;;4104617;28;19953;-51
2022/06/15 09:15:42;;;;;;;;;;;20.00;52.80;;;;;;4112505;28;20409;-49
2022/06/15 09:17:44;;;;;;;;;;;20.00;53.20;;;;;;4110567;28;19952;-49
2022/06/15 09:19:53;;;;;;;;;;;20.00;53.20;;;;;;4101699;28;20723;-54
2022/06/15 09:21:58;;;;;;;;;;;20.00;53.40;;;;;;4101758;28;20019;-47
2022/06/15 09:24:24;;;;;;;;;;;19.90;53.30;;;;;;4103880;28;20750;-45
2022/06/15 09:26:38;;;;;;;;;;;19.90;53.70;;;;;;4103696;28;19928;-55
2022/06/15 09:28:45;;;;;;;;;;;19.90;53.60;;;;;;4105075;28;20106;-52
2022/06/15 09:30:47;;;;;;;;;;;19.90;53.80;;;;;;4102322;28;19994;-49
2022/06/15 09:33:08;;;;;;;;;;;19.80;53.60;;;;;;4100656;28;19935;-55
2022/06/15 09:35:16;;;;;;;;;;;19.80;53.90;;;;;;4093150;28;20422;-49
2022/06/15 09:37:20;;;;;;;;;;;19.80;53.70;;;;;;4102637;28;20224;-51
2022/06/15 09:39:22;;;;;;;;;;;19.80;54.10;;;;;;4103818;28;19929;-53
2022/06/15 09:41:28;;;;;;;;;;;19.80;54.00;;;;;;4109512;28;20674;-50
2022/06/15 09:43:44;;;;;;;;;;;19.80;54.00;;;;;;4104313;28;19936;-46
2022/06/15 09:46:05;;;;;;;;;;;19.70;54.00;;;;;;4106747;28;21035;-50
2022/06/15 09:48:07;;;;;;;;;;;19.70;54.10;;;;;;4109044;28;19935;-51
2022/06/15 09:50:25;;;;;;;;;;;19.70;54.70;;;;;;4103591;28;19979;-51
2022/06/15 09:52:27;;;;;;;;;;;19.70;54.10;;;;;;4109708;28;19933;-48
2022/06/15 09:54:31;;;;;;;;;;;19.60;54.20;;;;;;4102894;28;20380;-55
2022/06/15 09:56:33;;;;;;;;;;;19.60;54.40;;;;;;4101079;28;19932;-56
2022/06/15 09:58:38;;;;;;;;;;;19.60;55.00;;;;;;4109023;28;20016;-57
2022/06/15 10:00:40;;;;;;;;;;;19.60;54.50;;;;;;4107259;28;21344;-54
2022/06/15 10:02:44;;;;;;;;;;;19.60;54.00;;;;;;4102767;28;20564;-59
2022/06/15 10:04:46;;;;;;;;;;;19.50;54.30;;;;;;4101992;28;19925;-64
2022/06/15 10:07:01;;;;;;;;;;;19.50;54.50;;;;;;4123995;28;19928;-59
2022/06/15 10:09:05;;;;;;;;;;;19.50;54.10;;;;;;4110662;28;20011;-65
2022/06/15 10:11:15;;;;;;;;;;;19.50;53.90;;;;;;4108116;28;19933;-63
2022/06/15 10:13:19;;;;;;;;;;;19.50;53.70;;;;;;4102921;28;19979;-64
2022/06/15 10:15:22;;;;;;;;;;;19.40;53.60;;;;;;4104833;28;19979;-63
2022/06/15 10:17:30;;;;;;;;;;;19.40;53.50;;;;;;4104254;28;20282;-61
2022/06/15 10:19:33;;;;;;;;;;;19.40;53.50;;;;;;4103645;28;19960;-66
2022/06/15 10:21:35;;;;;;;;;;;19.40;53.70;;;;;;4105251;28;21475;-64
2022/06/15 10:23:57;;;;;;;;;;;19.40;53.60;;;;;;4100355;28;20463;-65
2022/06/15 10:25:58;;;;;;;;;;;19.40;53.50;;;;;;4107310;28;20850;-65
2022/06/15 10:28:12;;;;;;;;;;;19.30;53.40;;;;;;4100536;28;20545;-62
2022/06/15 10:30:16;;;;;;;;;;;19.30;53.60;;;;;;4103595;28;19936;-57
2022/06/15 10:32:21;;;;;;;;;;;19.30;53.70;;;;;;4096810;28;20136;-60
2022/06/15 10:34:26;;;;;;;;;;;19.30;54.10;;;;;;4107644;28;20023;-56
2022/06/15 10:36:36;;;;;;;;;;;19.30;54.00;;;;;;4106605;28;20599;-59
2022/06/15 10:38:42;;;;;;;;;;;19.30;54.10;;;;;;4106737;28;21142;-57
2022/06/15 10:43:23;;;;;;;;;;;19.30;54.40;;;;;;4101874;28;19964;-61
2022/06/15 10:45:32;;;;;;;;;;;19.30;54.60;;;;;;4108873;28;19925;-61
2022/06/15 10:47:48;;;;;;;;;;;19.30;54.50;;;;;;4109246;28;19924;-61
2022/06/15 10:49:55;;;;;;;;;;;19.30;54.60;;;;;;4102583;28;19956;-60
2022/06/15 10:51:57;;;;;;;;;;;19.30;54.80;;;;;;4109695;28;19929;-58
2022/06/15 10:54:14;;;;;;;;;;;19.30;55.00;;;;;;4098730;28;20051;-60
2022/06/15 11:03:33;;;;;;;;;;;19.40;55.50;;;;;;4110623;28;19929;-54
2022/06/15 11:05:35;;;;;;;;;;;19.30;55.50;;;;;;4103428;28;20295;-58
2022/06/15 11:07:40;;;;;;;;;;;19.30;55.30;;;;;;4099916;28;19948;-56
2022/06/15 11:09:43;;;;;;;;;;;19.30;55.40;;;;;;4104486;28;20421;-61
2022/06/15 11:11:45;;;;;;;;;;;19.40;55.60;;;;;;4093445;28;20196;-60
2022/06/15 11:13:57;;;;;;;;;;;19.30;55.40;;;;;;4100453;28;20524;-53
2022/06/15 11:18:43;;;;;;;;;;;19.40;55.40;;;;;;4106884;28;19933;-59
2022/06/15 11:20:44;;;;;;;;;;;19.30;55.20;;;;;;4106597;28;19937;-61
2022/06/15 11:22:49;;;;;;;;;;;19.30;55.00;;;;;;4113839;28;20004;-62
2022/06/15 11:24:54;;;;;;;;;;;19.30;54.40;;;;;;4106927;28;20561;-47
2022/06/15 11:27:03;;;;;;;;;;;19.30;54.70;;;;;;4103673;28;20047;-60
2022/06/15 11:29:09;;;;;;;;;;;19.30;54.70;;;;;;4102822;28;19929;-59
2022/06/15 11:31:14;;;;;;;;;;;19.30;54.80;;;;;;4106302;28;20387;-61
2022/06/15 11:33:20;;;;;;;;;;;19.30;54.90;;;;;;4107283;28;19929;-60
2022/06/15 11:35:23;;;;;;;;;;;19.30;54.90;;;;;;4101879;28;20014;-62
2022/06/15 11:37:28;;;;;;;;;;;19.30;54.90;;;;;;4101218;28;20330;-60
2022/06/15 11:39:39;;;;;;;;;;;19.30;54.80;;;;;;4100351;28;20261;-57
2022/06/15 11:41:59;;;;;;;;;;;19.30;54.80;;;;;;4100412;28;20346;-60
2022/06/15 11:44:07;;;;;;;;;;;19.30;54.90;;;;;;4098194;28;19929;-60
2022/06/15 11:46:24;;;;;;;;;;;19.20;54.90;;;;;;4100410;28;19929;-50
2022/06/15 11:48:34;;;;;;;;;;;19.30;55.00;;;;;;4096920;28;19979;-56
2022/06/15 11:50:41;;;;;;;;;;;19.20;54.90;;;;;;4098285;28;19964;-62
2022/06/15 11:52:43;;;;;;;;;;;19.20;54.50;;;;;;4103544;28;19932;-51
2022/06/15 11:54:47;;;;;;;;;;;19.20;55.10;;;;;;4105389;28;19956;-58
2022/06/15 11:56:56;;;;;;;;;;;19.40;54.60;;;;;;4085277;28;21161;-60
2022/06/15 11:58:58;;;;;;;;;;;19.90;53.60;;;;;;4098374;28;21608;-60
2022/06/15 12:01:00;;;;;;;;;;;20.50;52.20;;;;;;4100869;28;19940;-58
2022/06/15 12:03:19;;;;;;;;;;;21.10;51.00;;;;;;4110286;28;19925;-60
2022/06/15 12:05:24;;;;;;;;;;;21.60;49.90;;;;;;4104167;28;20555;-61
2022/06/15 12:07:34;;;;;;;;;;;22.10;49.00;;;;;;4110252;28;20515;-60
2022/06/15 12:09:41;;;;;;;;;;;22.50;48.20;;;;;;4110114;28;19929;-56
2022/06/15 12:14:22;;;;;;;;;;;23.10;47.40;;;;;;4108764;28;19933;-56
2022/06/15 12:16:30;;;;;;;;;;;23.10;47.30;;;;;;4099780;28;20295;-53
2022/06/15 12:18:42;;;;;;;;;;;22.70;48.00;;;;;;4105473;28;20437;-57
2022/06/15 12:20:55;;;;;;;;;;;22.40;48.70;;;;;;4106162;28;20044;-56
2022/06/15 12:23:03;;;;;;;;;;;22.20;49.40;;;;;;4106893;28;19933;-54
2022/06/15 12:25:05;;;;;;;;;;;21.90;49.90;;;;;;4109888;28;19932;-56
2022/06/15 12:27:25;;;;;;;;;;;21.70;50.40;;;;;;4102486;28;19929;-57